Time;durP1;ratioP1;P1;durP2;ratioP2;P2;SDS_P1;SDS_P2;PMS_P1;PMS_P2;Temp;Humidity;BMP_temperature;BMP_pressure;BME280_temperature;BME280_humidity;BME280_pressure;Samples;Min_cycle;Max_cycle;Signal;HPM_P1;HPM_P2
2022/10/17 00:00:27;;;;;;;26.83;18.90;;;15.80;99.90;;;;;;5066628;28;20239;-78
2022/10/17 00:03:16;;;;;;;23.75;19.02;;;15.80;99.90;;;;;;5082176;28;20682;-77
2022/10/17 00:06:07;;;;;;;25.45;19.00;;;15.80;99.90;;;;;;5070916;28;20231;-79
2022/10/17 00:08:56;;;;;;;26.20;18.90;;;15.70;99.90;;;;;;5071078;28;20742;-79
2022/10/17 00:11:44;;;;;;;25.55;19.17;;;15.80;99.90;;;;;;5081761;28;20219;-78
2022/10/17 00:14:35;;;;;;;25.20;19.55;;;15.80;99.90;;;;;;5063805;28;20634;-79
2022/10/17 00:17:24;;;;;;;26.60;18.45;;;15.70;99.90;;;;;;5073752;28;21001;-79
2022/10/17 00:20:13;;;;;;;25.30;18.30;;;15.70;99.90;;;;;;5076987;28;20223;-78
2022/10/17 00:23:02;;;;;;;23.75;19.42;;;15.70;99.90;;;;;;5067957;28;20233;-78
2022/10/17 00:25:59;;;;;;;25.42;19.10;;;15.70;99.90;;;;;;5063413;28;20706;-78
2022/10/17 00:28:48;;;;;;;25.52;19.55;;;15.70;99.90;;;;;;5075855;28;20224;-77
2022/10/17 00:31:39;;;;;;;24.30;18.40;;;15.60;99.90;;;;;;5075311;28;20340;-80
2022/10/17 00:34:33;;;;;;;24.48;17.92;;;15.70;99.90;;;;;;5077062;28;20356;-79
2022/10/17 00:37:26;;;;;;;26.95;19.30;;;15.60;99.90;;;;;;5075189;28;20220;-79
2022/10/17 00:40:15;;;;;;;28.00;19.52;;;15.60;99.90;;;;;;5079164;28;20230;-79
2022/10/17 00:43:07;;;;;;;24.33;18.65;;;15.50;99.90;;;;;;5062665;28;20223;-78
2022/10/17 00:45:56;;;;;;;25.95;19.00;;;15.50;99.90;;;;;;5075595;28;20227;-78
2022/10/17 00:48:48;;;;;;;24.23;19.15;;;15.50;99.90;;;;;;5081810;28;20234;-78
2022/10/17 00:51:41;;;;;;;25.63;19.50;;;15.50;99.90;;;;;;5072078;28;20274;-78
2022/10/17 00:54:35;;;;;;;26.95;19.58;;;15.50;99.90;;;;;;5075700;28;20292;-78
2022/10/17 00:57:24;;;;;;;25.13;18.83;;;15.50;99.90;;;;;;5074271;28;20402;-78
2022/10/17 01:00:16;;;;;;;26.17;19.17;;;15.50;99.90;;;;;;5066346;28;20222;-75
2022/10/17 01:03:08;;;;;;;23.52;19.35;;;15.50;99.90;;;;;;5066906;28;20358;-75
2022/10/17 01:05:59;;;;;;;24.60;18.63;;;15.50;99.90;;;;;;5074056;28;20220;-76
2022/10/17 01:08:51;;;;;;;27.15;19.67;;;15.50;99.90;;;;;;5075469;28;20234;-77
2022/10/17 01:11:49;;;;;;;25.90;19.50;;;15.50;99.90;;;;;;5076243;28;20227;-77
2022/10/17 01:14:43;;;;;;;29.17;20.67;;;15.50;99.90;;;;;;5063002;28;20320;-76
2022/10/17 01:17:40;;;;;;;26.17;20.40;;;15.50;99.90;;;;;;5063951;28;20281;-77
2022/10/17 01:21:02;;;;;;;24.20;18.58;;;15.40;99.90;;;;;;5071905;28;20248;-76
2022/10/17 01:24:27;;;;;;;25.63;19.40;;;15.30;99.90;;;;;;5073582;28;20683;-77
2022/10/17 01:27:52;;;;;;;28.85;20.98;;;15.40;99.90;;;;;;5067882;28;20228;-77
2022/10/17 01:30:56;;;;;;;26.23;19.80;;;15.40;99.90;;;;;;5074992;28;20220;-77
2022/10/17 01:33:59;;;;;;;26.23;20.10;;;15.40;99.90;;;;;;5060494;28;20701;-77
2022/10/17 01:36:52;;;;;;;26.15;19.55;;;15.50;99.90;;;;;;5071009;28;20231;-78
2022/10/17 01:39:50;;;;;;;26.50;20.95;;;15.50;99.90;;;;;;5078366;28;20230;-73
2022/10/17 01:42:45;;;;;;;27.55;19.92;;;15.40;99.90;;;;;;5066010;28;20797;-78
2022/10/17 01:45:44;;;;;;;25.17;19.58;;;15.40;99.90;;;;;;5066937;28;20598;-78
2022/10/17 01:48:37;;;;;;;25.45;20.17;;;15.40;99.90;;;;;;5079448;28;20683;-77
2022/10/17 01:51:30;;;;;;;34.08;19.50;;;15.40;99.90;;;;;;5075185;28;20227;-78
2022/10/17 01:54:23;;;;;;;24.33;19.33;;;15.40;99.90;;;;;;5060389;28;20230;-79
2022/10/17 01:57:18;;;;;;;25.48;20.30;;;15.40;99.90;;;;;;5063421;28;20237;-77
2022/10/17 02:00:12;;;;;;;25.00;19.98;;;15.40;99.90;;;;;;5057532;28;20316;-78
2022/10/17 02:03:10;;;;;;;26.35;20.55;;;15.40;99.90;;;;;;5074379;28;20690;-77
2022/10/17 02:06:00;;;;;;;27.15;20.92;;;15.30;99.90;;;;;;5067349;28;20406;-77
2022/10/17 02:08:51;;;;;;;29.02;20.95;;;15.20;99.90;;;;;;5063111;28;20835;-78
2022/10/17 02:11:41;;;;;;;29.52;21.27;;;15.20;99.90;;;;;;5062317;28;20226;-78
2022/10/17 02:14:42;;;;;;;25.77;19.60;;;15.20;99.90;;;;;;5072343;28;20222;-76
2022/10/17 02:17:44;;;;;;;26.10;20.67;;;15.30;99.90;;;;;;5080587;28;20716;-78
2022/10/17 02:20:39;;;;;;;28.55;19.92;;;15.20;99.90;;;;;;5079403;28;20231;-77
2022/10/17 02:23:37;;;;;;;26.38;21.08;;;15.20;99.90;;;;;;5071395;28;20353;-75
2022/10/17 02:26:30;;;;;;;27.55;20.23;;;15.20;99.90;;;;;;5059704;28;20227;-76
2022/10/17 02:29:24;;;;;;;27.38;21.75;;;15.20;99.90;;;;;;5064193;28;20220;-76
2022/10/17 02:32:17;;;;;;;25.58;19.63;;;15.10;99.90;;;;;;5082752;28;20224;-76
2022/10/17 02:35:11;;;;;;;27.20;20.90;;;15.10;99.90;;;;;;5079448;28;20216;-76
2022/10/17 02:38:00;;;;;;;29.42;20.23;;;15.10;99.90;;;;;;5076733;28;20299;-76
2022/10/17 02:40:52;;;;;;;27.27;20.75;;;15.00;99.90;;;;;;5061831;28;20223;-77
2022/10/17 02:43:44;;;;;;;28.60;20.48;;;15.10;99.90;;;;;;5072936;28;20208;-77
2022/10/17 02:46:35;;;;;;;28.77;20.83;;;15.10;99.90;;;;;;5064731;28;20241;-77
2022/10/17 02:49:28;;;;;;;29.10;20.58;;;15.00;99.90;;;;;;5065928;28;20219;-77
2022/10/17 02:52:24;;;;;;;29.45;21.58;;;14.90;99.90;;;;;;5061512;28;20325;-77
2022/10/17 02:55:18;;;;;;;35.25;21.20;;;14.90;99.90;;;;;;5079017;28;20231;-76
2022/10/17 02:58:14;;;;;;;30.70;20.98;;;15.00;99.90;;;;;;5060241;28;20711;-78
2022/10/17 03:01:05;;;;;;;34.58;21.58;;;14.90;99.90;;;;;;5078719;28;21030;-79
2022/10/17 03:04:05;;;;;;;26.17;20.63;;;14.90;99.90;;;;;;5069998;28;20639;-80
2022/10/17 03:06:57;;;;;;;25.55;20.15;;;14.80;99.90;;;;;;5071620;28;20226;-79
2022/10/17 03:09:46;;;;;;;28.63;20.75;;;14.90;99.90;;;;;;5066266;28;20228;-79
2022/10/17 03:12:34;;;;;;;29.15;21.58;;;14.90;99.90;;;;;;5055992;28;20349;-79
2022/10/17 03:15:25;;;;;;;24.83;20.25;;;14.90;99.90;;;;;;5076766;28;21186;-77
2022/10/17 03:18:14;;;;;;;27.50;21.33;;;14.90;99.90;;;;;;5080965;28;20283;-79
2022/10/17 03:21:03;;;;;;;27.20;20.90;;;15.00;99.90;;;;;;5064793;28;20223;-79
2022/10/17 03:23:52;;;;;;;30.75;21.85;;;14.90;99.90;;;;;;5080089;28;20654;-80
2022/10/17 03:26:43;;;;;;;29.13;21.38;;;14.90;99.90;;;;;;5064709;28;20300;-79
2022/10/17 03:29:32;;;;;;;24.60;19.75;;;14.90;99.90;;;;;;5066324;28;20220;-79
2022/10/17 03:32:24;;;;;;;27.65;20.45;;;14.90;99.90;;;;;;5066378;28;20220;-79
2022/10/17 03:35:12;;;;;;;26.90;20.50;;;15.00;99.90;;;;;;5069144;28;20224;-77
2022/10/17 03:38:05;;;;;;;25.27;21.17;;;14.90;99.90;;;;;;5079364;28;20357;-78
2022/10/17 03:40:57;;;;;;;26.02;20.02;;;14.90;99.90;;;;;;5065300;28;20258;-77
2022/10/17 03:43:46;;;;;;;27.40;20.95;;;15.00;99.90;;;;;;5060425;28;20375;-78
2022/10/17 03:46:35;;;;;;;27.67;20.85;;;14.90;99.90;;;;;;5062568;28;20211;-78
2022/10/17 03:49:26;;;;;;;31.70;21.75;;;14.90;99.90;;;;;;5075743;28;20222;-77
2022/10/17 03:52:15;;;;;;;28.13;21.33;;;14.90;99.90;;;;;;5066216;28;20459;-76
2022/10/17 03:55:06;;;;;;;26.52;21.48;;;14.90;99.90;;;;;;5062931;28;20358;-77
2022/10/17 03:57:59;;;;;;;29.63;22.20;;;14.90;99.90;;;;;;5076556;28;20236;-75
2022/10/17 04:00:48;;;;;;;28.13;21.15;;;14.90;99.90;;;;;;5075298;28;20667;-76
2022/10/17 04:03:40;;;;;;;29.80;21.90;;;15.00;99.90;;;;;;5060882;28;20219;-75
2022/10/17 04:06:30;;;;;;;25.63;21.23;;;15.00;99.90;;;;;;5080879;28;20478;-75
2022/10/17 04:09:20;;;;;;;31.35;22.30;;;14.90;99.90;;;;;;5070789;28;20306;-76
2022/10/17 04:12:16;;;;;;;29.73;22.13;;;15.00;99.90;;;;;;5073071;28;20633;-74
2022/10/17 04:15:06;;;;;;;27.80;21.63;;;15.00;99.90;;;;;;5064484;28;20348;-77
2022/10/17 04:17:55;;;;;;;27.40;21.27;;;15.00;99.90;;;;;;5069346;28;20336;-74
2022/10/17 04:20:44;;;;;;;26.08;21.30;;;14.90;99.90;;;;;;5061839;28;20306;-75
2022/10/17 04:23:38;;;;;;;27.92;22.35;;;14.90;99.90;;;;;;5062337;28;20306;-76
2022/10/17 04:26:37;;;;;;;32.92;22.23;;;14.90;99.90;;;;;;5063691;28;20625;-78
2022/10/17 04:29:26;;;;;;;40.03;24.15;;;14.90;99.90;;;;;;5069272;28;20215;-77
2022/10/17 04:32:23;;;;;;;26.40;21.38;;;14.90;99.90;;;;;;5060205;28;20654;-77
2022/10/17 04:35:34;;;;;;;31.77;23.05;;;14.90;99.90;;;;;;5066357;28;20269;-77
2022/10/17 04:38:25;;;;;;;29.83;22.55;;;14.90;99.90;;;;;;5076997;28;20294;-78
2022/10/17 04:41:18;;;;;;;30.42;23.45;;;14.80;99.90;;;;;;5070931;28;20316;-77
2022/10/17 04:44:08;;;;;;;29.30;22.27;;;14.80;99.90;;;;;;5078612;28;20275;-78
2022/10/17 04:46:59;;;;;;;30.63;22.70;;;14.80;99.90;;;;;;5056864;28;20273;-74
2022/10/17 04:49:48;;;;;;;35.33;23.40;;;14.80;99.90;;;;;;5078219;28;20231;-76
2022/10/17 04:52:37;;;;;;;30.85;22.52;;;14.80;99.90;;;;;;5065019;28;20776;-75
2022/10/17 04:55:26;;;;;;;36.15;23.20;;;14.80;99.90;;;;;;5063621;28;20216;-77
2022/10/17 04:58:16;;;;;;;29.83;22.80;;;14.80;99.90;;;;;;5061960;28;20234;-77
2022/10/17 05:01:10;;;;;;;33.67;21.98;;;14.80;99.90;;;;;;5068825;28;20255;-76
2022/10/17 05:04:04;;;;;;;30.02;22.15;;;14.80;99.90;;;;;;5059219;28;20230;-76
2022/10/17 05:06:53;;;;;;;30.20;21.70;;;14.80;99.90;;;;;;5066068;28;20219;-75
2022/10/17 05:10:02;;;;;;;28.30;22.65;;;14.90;99.90;;;;;;5074040;28;20299;-75
2022/10/17 05:12:52;;;;;;;33.13;23.95;;;14.90;99.90;;;;;;5067516;28;21070;-77
2022/10/17 05:15:45;;;;;;;33.28;23.83;;;14.90;99.90;;;;;;5065819;28;20223;-78
2022/10/17 05:18:34;;;;;;;32.70;24.02;;;14.90;99.90;;;;;;5069589;28;20309;-77
2022/10/17 05:21:25;;;;;;;30.70;23.45;;;14.90;99.90;;;;;;5062951;28;20216;-77
2022/10/17 05:24:15;;;;;;;30.27;23.23;;;14.90;99.90;;;;;;5063107;28;20228;-74
2022/10/17 05:27:04;;;;;;;32.20;23.42;;;14.90;99.90;;;;;;5062998;28;20243;-76
2022/10/17 05:29:53;;;;;;;39.30;25.33;;;15.00;99.90;;;;;;5062455;28;20590;-78
2022/10/17 05:32:52;;;;;;;30.65;23.85;;;15.00;99.90;;;;;;5059202;28;20768;-78
2022/10/17 05:35:41;;;;;;;35.45;23.55;;;14.90;99.90;;;;;;5063275;28;20220;-75
2022/10/17 05:38:29;;;;;;;33.85;24.50;;;14.90;99.90;;;;;;5062940;28;20684;-76
2022/10/17 05:41:19;;;;;;;37.22;23.83;;;14.90;99.90;;;;;;5063547;28;20250;-77
2022/10/17 05:44:08;;;;;;;33.63;24.45;;;14.90;99.90;;;;;;5062730;28;20315;-77
2022/10/17 05:47:05;;;;;;;59.67;25.65;;;15.00;99.90;;;;;;5063687;28;20315;-79
2022/10/17 05:49:55;;;;;;;50.25;25.75;;;15.10;99.90;;;;;;5055969;28;20235;-76
2022/10/17 05:52:54;;;;;;;61.70;24.88;;;15.10;99.90;;;;;;5063283;28;20601;-78
2022/10/17 05:55:47;;;;;;;32.70;24.52;;;15.10;99.90;;;;;;5064675;28;20593;-79
2022/10/17 05:58:39;;;;;;;115.32;27.63;;;15.20;99.90;;;;;;5060855;28;20243;-78
2022/10/17 06:02:12;;;;;;;188.25;30.50;;;15.20;99.90;;;;;;5061650;27;20785;-78
2022/10/17 06:05:03;;;;;;;47.08;23.98;;;15.20;99.90;;;;;;5061958;28;20243;-78
2022/10/17 06:07:52;;;;;;;32.67;24.90;;;15.20;99.90;;;;;;5078679;28;20314;-77
2022/10/17 06:10:48;;;;;;;33.13;24.42;;;15.10;99.90;;;;;;5064365;28;20228;-78
2022/10/17 06:13:37;;;;;;;34.97;25.50;;;15.10;99.90;;;;;;5056369;28;20242;-80
2022/10/17 06:16:32;;;;;;;33.72;24.67;;;15.00;99.90;;;;;;5059594;28;20658;-79
2022/10/17 06:19:21;;;;;;;36.35;25.05;;;15.10;99.90;;;;;;5074739;28;20220;-77
2022/10/17 06:22:11;;;;;;;34.35;26.13;;;15.20;99.90;;;;;;5064612;28;20302;-78
2022/10/17 06:25:00;;;;;;;34.75;25.25;;;15.20;99.90;;;;;;5076715;28;20219;-79
2022/10/17 06:27:49;;;;;;;32.78;24.50;;;15.30;99.90;;;;;;5060159;28;20215;-77
2022/10/17 07:05:53;;;;;;;36.35;25.60;;;15.50;99.90;;;;;;5079601;27;175121;-77
2022/10/17 07:08:43;;;;;;;40.00;26.05;;;15.60;99.90;;;;;;5069141;28;20813;-78
2022/10/17 07:11:35;;;;;;;35.35;26.55;;;15.70;99.90;;;;;;5074912;28;20211;-76
2022/10/17 07:14:30;;;;;;;34.10;25.98;;;15.70;99.90;;;;;;5073050;28;20227;-76
2022/10/17 07:17:19;;;;;;;35.33;26.05;;;15.80;99.90;;;;;;5063837;28;20350;-77
2022/10/17 07:20:09;;;;;;;37.85;26.02;;;15.90;99.90;;;;;;5091778;28;20222;-76
2022/10/17 07:23:00;;;;;;;38.95;29.38;;;15.90;99.90;;;;;;5090119;28;20233;-76
2022/10/17 07:25:50;;;;;;;34.17;25.92;;;16.00;99.90;;;;;;5093517;28;20233;-78
2022/10/17 07:28:40;;;;;;;33.25;26.25;;;16.10;99.90;;;;;;5093009;28;20222;-76
2022/10/17 07:31:47;;;;;;;36.08;26.33;;;16.20;99.90;;;;;;5091321;28;20224;-77
2022/10/17 07:34:36;;;;;;;35.90;25.75;;;16.20;99.90;;;;;;5091655;28;20255;-76
2022/10/17 07:37:27;;;;;;;36.05;25.33;;;16.20;99.90;;;;;;5081578;28;20623;-76
2022/10/17 07:40:18;;;;;;;36.55;25.45;;;16.30;99.90;;;;;;5109064;28;20234;-75
2022/10/17 07:43:07;;;;;;;36.42;25.98;;;16.30;99.90;;;;;;5082756;28;20357;-76
2022/10/17 07:45:58;;;;;;;31.00;24.85;;;16.40;99.90;;;;;;5087476;28;20306;-76
2022/10/17 07:48:46;;;;;;;35.60;26.27;;;16.40;99.90;;;;;;5088871;28;20706;-76
2022/10/17 07:51:35;;;;;;;36.20;25.65;;;16.50;99.90;;;;;;5093030;28;20215;-77
2022/10/17 07:54:24;;;;;;;32.67;25.33;;;16.50;99.90;;;;;;5093366;28;20296;-77
2022/10/17 07:57:14;;;;;;;34.40;25.90;;;16.60;99.90;;;;;;5088377;28;20693;-78
2022/10/17 08:00:03;;;;;;;39.08;27.58;;;16.60;99.90;;;;;;5086971;28;20655;-78
2022/10/17 08:02:59;;;;;;;35.88;26.65;;;16.70;99.90;;;;;;5089836;28;20224;-76
2022/10/17 08:05:48;;;;;;;37.13;24.77;;;16.80;99.90;;;;;;5077973;28;20234;-77
2022/10/17 08:08:37;;;;;;;39.03;26.52;;;16.80;99.90;;;;;;5078474;28;20224;-77
2022/10/17 08:11:25;;;;;;;31.75;24.50;;;16.90;99.90;;;;;;5082173;28;20226;-77
2022/10/17 08:14:15;;;;;;;32.42;25.98;;;17.10;99.90;;;;;;5075801;28;20223;-77
2022/10/17 08:17:04;;;;;;;33.67;24.58;;;17.30;99.90;;;;;;5076006;28;20228;-76
2022/10/17 08:19:53;;;;;;;35.08;24.02;;;17.30;99.90;;;;;;5078543;28;20610;-77
2022/10/17 08:22:46;;;;;;;35.22;23.95;;;17.30;99.90;;;;;;5081263;28;20614;-77
2022/10/17 08:25:34;;;;;;;33.95;23.20;;;17.50;99.90;;;;;;5081366;28;20220;-77
2022/10/17 08:28:23;;;;;;;32.28;24.55;;;17.50;99.90;;;;;;5080281;28;20223;-77
2022/10/17 08:31:17;;;;;;;32.30;24.13;;;17.60;99.90;;;;;;5079491;28;20301;-77
2022/10/17 08:34:05;;;;;;;35.28;24.10;;;17.70;99.90;;;;;;5078617;28;20311;-76
2022/10/17 08:36:55;;;;;;;30.75;24.33;;;17.80;99.90;;;;;;5080127;28;20676;-76
2022/10/17 08:39:44;;;;;;;30.33;23.67;;;18.00;99.90;;;;;;5083298;28;20223;-76
2022/10/17 08:43:11;;;;;;;33.97;23.27;;;18.10;99.90;;;;;;5076402;28;20518;-75
2022/10/17 08:46:02;;;;;;;34.55;23.30;;;18.30;99.90;;;;;;5059088;28;21025;-75
2022/10/17 08:48:53;;;;;;;30.98;22.83;;;18.20;99.90;;;;;;5063723;28;20691;-76
2022/10/17 08:51:48;;;;;;;30.40;22.65;;;18.10;99.90;;;;;;5078562;28;20218;-77
2022/10/17 08:54:41;;;;;;;32.75;23.77;;;18.00;99.90;;;;;;5064700;28;20216;-76
2022/10/17 08:57:30;;;;;;;30.98;22.88;;;18.00;99.90;;;;;;5078926;28;20226;-75
2022/10/17 09:00:21;;;;;;;30.77;23.10;;;18.00;99.90;;;;;;5078838;28;20311;-76
2022/10/17 09:03:25;;;;;;;29.23;21.83;;;18.00;99.90;;;;;;5062510;28;20224;-77
2022/10/17 09:06:23;;;;;;;34.15;21.50;;;18.00;99.90;;;;;;5075757;28;20234;-81
2022/10/17 09:09:25;;;;;;;25.73;20.48;;;18.00;99.90;;;;;;5064721;28;20231;-79
2022/10/17 09:12:17;;;;;;;31.88;23.13;;;17.90;99.90;;;;;;5061200;28;20231;-79
2022/10/17 09:15:29;;;;;;;33.30;21.33;;;18.00;99.90;;;;;;5077578;28;20697;-76
2022/10/17 09:18:23;;;;;;;29.40;21.40;;;18.00;99.90;;;;;;5065738;28;20686;-87
2022/10/17 09:21:20;;;;;;;31.30;20.92;;;18.00;99.90;;;;;;5067933;28;20345;-76
2022/10/17 09:24:16;;;;;;;29.48;21.88;;;18.00;99.90;;;;;;5076650;28;20220;-77
2022/10/17 09:27:11;;;;;;;30.75;22.08;;;18.00;99.90;;;;;;5073778;28;20228;-75
2022/10/17 09:30:21;;;;;;;26.90;20.10;;;18.10;99.90;;;;;;5063095;28;21312;-75
2022/10/17 09:33:34;;;;;;;32.45;21.27;;;18.20;99.90;;;;;;5072806;28;20250;-77
2022/10/17 09:36:43;;;;;;;27.50;21.25;;;18.30;99.90;;;;;;5065548;28;20686;-77
2022/10/17 09:39:32;;;;;;;30.67;19.95;;;18.30;99.90;;;;;;5079067;28;20730;-78
2022/10/17 09:42:25;;;;;;;31.95;19.90;;;18.40;99.90;;;;;;5079985;28;20223;-76
2022/10/17 09:45:23;;;;;;;30.00;20.17;;;18.50;99.90;;;;;;5075610;28;20957;-76
2022/10/17 09:48:20;;;;;;;23.38;18.75;;;18.50;99.90;;;;;;5076986;28;20228;-76
2022/10/17 09:51:09;;;;;;;24.50;19.45;;;18.50;99.90;;;;;;5060138;28;20889;-75
2022/10/17 09:54:20;;;;;;;28.60;20.58;;;18.50;99.90;;;;;;5067693;28;20231;-77
2022/10/17 09:57:10;;;;;;;27.85;19.75;;;18.60;99.90;;;;;;5083619;28;20496;-76
2022/10/17 10:00:02;;;;;;;24.33;19.20;;;18.60;99.90;;;;;;5078559;28;20281;-76
2022/10/17 10:03:14;;;;;;;32.33;19.42;;;18.60;99.90;;;;;;5072632;28;20223;-76
2022/10/17 10:06:05;;;;;;;23.92;18.23;;;18.70;99.90;;;;;;5066108;28;20232;-76
2022/10/17 10:08:58;;;;;;;28.42;18.88;;;18.70;99.90;;;;;;5077678;28;20250;-75
2022/10/17 10:11:50;;;;;;;24.95;17.63;;;18.70;99.90;;;;;;5073983;28;20230;-74
2022/10/17 10:14:39;;;;;;;23.90;17.52;;;18.80;99.90;;;;;;5076996;28;20261;-77
2022/10/17 10:17:41;;;;;;;21.33;16.77;;;18.80;99.90;;;;;;5079373;28;20691;-75
2022/10/17 10:20:34;;;;;;;23.23;16.73;;;18.80;99.90;;;;;;5085226;28;20208;-76
2022/10/17 10:23:23;;;;;;;21.60;16.10;;;18.80;99.90;;;;;;5077732;28;20237;-76
2022/10/17 10:26:23;;;;;;;24.20;16.75;;;18.90;99.90;;;;;;5057335;28;20235;-77
2022/10/17 10:29:24;;;;;;;27.92;17.13;;;18.90;99.90;;;;;;5062797;28;20651;-77
2022/10/17 10:32:25;;;;;;;21.98;16.65;;;19.00;99.90;;;;;;5076219;28;20223;-76
2022/10/17 10:35:21;;;;;;;26.67;16.45;;;19.00;99.90;;;;;;5074317;28;20219;-78
2022/10/17 10:38:14;;;;;;;19.25;15.20;;;19.10;99.90;;;;;;5074695;28;20224;-78
2022/10/17 10:41:06;;;;;;;23.70;14.68;;;19.20;99.90;;;;;;5072206;28;20318;-78
2022/10/17 10:43:56;;;;;;;24.23;16.10;;;19.30;99.90;;;;;;5055626;28;20283;-79
2022/10/17 10:46:46;;;;;;;25.30;15.95;;;19.30;99.90;;;;;;5078203;28;20718;-78
2022/10/17 10:49:35;;;;;;;21.25;15.70;;;19.30;99.90;;;;;;5079385;28;20815;-77
2022/10/17 10:52:32;;;;;;;20.02;16.50;;;19.30;99.90;;;;;;5080143;28;20225;-78
2022/10/17 10:55:26;;;;;;;19.40;14.73;;;19.30;99.90;;;;;;5078613;28;20220;-78
2022/10/17 10:58:27;;;;;;;24.42;16.40;;;19.40;99.90;;;;;;5080229;28;20224;-77
2022/10/17 11:01:22;;;;;;;21.23;15.57;;;19.40;99.90;;;;;;5077775;28;20355;-76
2022/10/17 11:04:31;;;;;;;20.73;15.38;;;19.50;99.90;;;;;;5077790;28;20230;-77
2022/10/17 11:07:23;;;;;;;20.67;15.77;;;19.60;99.90;;;;;;5074623;28;20216;-75
2022/10/17 11:10:17;;;;;;;20.13;16.23;;;19.60;99.90;;;;;;5077728;28;20250;-76
2022/10/17 11:13:10;;;;;;;23.55;16.33;;;19.70;99.90;;;;;;5076624;28;20219;-77
2022/10/17 11:16:08;;;;;;;17.98;15.32;;;19.70;99.90;;;;;;5075194;28;20226;-77
2022/10/17 11:19:16;;;;;;;22.63;15.55;;;19.70;99.90;;;;;;5072997;28;20762;-77
2022/10/17 11:22:14;;;;;;;24.65;15.68;;;19.80;99.90;;;;;;5085816;28;20227;-77
2022/10/17 11:25:13;;;;;;;18.90;15.38;;;19.70;99.90;;;;;;5076689;28;20651;-77
2022/10/17 11:28:03;;;;;;;22.00;16.30;;;19.70;99.90;;;;;;5076839;28;20928;-77
2022/10/17 11:30:57;;;;;;;21.65;16.20;;;19.70;99.90;;;;;;5065268;28;20234;-77
2022/10/17 11:33:54;;;;;;;19.05;15.88;;;19.80;99.90;;;;;;5077817;28;20226;-78
2022/10/17 11:36:44;;;;;;;21.17;15.45;;;19.80;99.90;;;;;;5072606;28;20232;-78
2022/10/17 11:39:52;;;;;;;19.38;14.98;;;19.80;99.90;;;;;;5074258;28;20224;-77
2022/10/17 11:42:46;;;;;;;20.67;15.38;;;19.80;99.90;;;;;;5075599;28;20690;-78
2022/10/17 11:45:40;;;;;;;21.08;15.63;;;19.80;99.90;;;;;;5075213;28;20234;-78
2022/10/17 11:48:35;;;;;;;23.85;16.20;;;19.90;99.90;;;;;;5077068;28;20216;-77
2022/10/17 11:51:24;;;;;;;22.58;16.25;;;19.80;99.90;;;;;;5080333;28;20243;-77
2022/10/17 11:54:41;;;;;;;21.23;15.70;;;19.90;99.90;;;;;;5069014;28;20645;-77
2022/10/17 11:57:52;;;;;;;22.83;15.48;;;19.80;99.90;;;;;;5073119;28;20231;-77
2022/10/17 12:00:54;;;;;;;19.70;15.60;;;19.80;99.90;;;;;;5066466;28;20238;-76
2022/10/17 15:04:31;;;;;;;23.65;14.75;;;19.50;99.90;;;;;;5093355;27;20632;-77
2022/10/17 15:07:21;;;;;;;20.98;14.88;;;19.50;99.90;;;;;;5063003;28;20223;-75
2022/10/17 15:10:25;;;;;;;21.40;14.50;;;19.50;99.90;;;;;;5067556;28;20211;-76
2022/10/17 15:13:15;;;;;;;20.77;14.73;;;19.50;99.90;;;;;;5071530;28;20771;-76
2022/10/17 15:16:19;;;;;;;23.63;15.30;;;19.40;99.90;;;;;;5080364;28;20222;-76
2022/10/17 15:19:07;;;;;;;25.15;15.65;;;19.40;99.90;;;;;;5085901;28;20306;-76
2022/10/17 15:21:57;;;;;;;24.70;15.02;;;19.40;99.90;;;;;;5073721;28;20637;-78
2022/10/17 15:24:50;;;;;;;23.27;15.20;;;19.40;99.90;;;;;;5077612;28;20227;-78
2022/10/17 15:27:38;;;;;;;20.30;15.57;;;19.40;99.90;;;;;;5085722;28;20218;-75
2022/10/17 15:30:30;;;;;;;23.40;15.60;;;19.40;99.90;;;;;;5088271;28;20268;-73
2022/10/17 15:33:19;;;;;;;20.55;15.43;;;19.40;99.90;;;;;;5063246;28;20227;-74
2022/10/17 15:36:22;;;;;;;22.58;15.23;;;19.30;99.90;;;;;;5091270;28;20227;-75
2022/10/17 15:39:12;;;;;;;21.25;15.88;;;19.30;99.90;;;;;;5088893;28;20320;-78
2022/10/17 15:42:01;;;;;;;19.83;16.10;;;19.30;99.90;;;;;;5085916;28;20801;-76
2022/10/17 15:44:50;;;;;;;27.17;16.60;;;19.30;99.90;;;;;;5087398;28;20219;-77
2022/10/17 15:47:38;;;;;;;20.27;15.30;;;19.30;99.90;;;;;;5067453;28;20220;-77
2022/10/17 15:50:29;;;;;;;19.70;15.73;;;19.30;99.90;;;;;;5083352;28;20207;-78
2022/10/17 15:53:18;;;;;;;20.98;16.25;;;19.30;99.90;;;;;;5081161;28;20316;-77
2022/10/17 15:56:17;;;;;;;21.80;16.27;;;19.30;99.90;;;;;;5073642;28;20228;-76
2022/10/17 15:59:11;;;;;;;25.13;16.45;;;19.20;99.90;;;;;;5089673;27;20246;-76
2022/10/17 16:01:59;;;;;;;25.08;17.55;;;19.20;99.90;;;;;;5092039;28;20227;-74
2022/10/17 16:04:49;;;;;;;23.15;16.80;;;19.20;99.90;;;;;;5070068;28;20714;-77
2022/10/17 16:07:38;;;;;;;23.88;15.88;;;19.20;99.90;;;;;;5090667;28;20292;-77
2022/10/17 16:10:27;;;;;;;28.63;16.45;;;19.20;99.90;;;;;;5090429;28;20221;-75
2022/10/17 16:13:20;;;;;;;25.88;17.30;;;19.10;99.90;;;;;;5085600;28;20223;-77
2022/10/17 16:16:09;;;;;;;18.45;15.60;;;19.20;99.90;;;;;;5061382;28;20260;-76
2022/10/17 16:19:00;;;;;;;24.23;17.60;;;19.10;99.90;;;;;;5074152;28;20223;-76
2022/10/17 16:21:49;;;;;;;19.90;17.27;;;19.10;99.90;;;;;;5079014;28;20220;-76
2022/10/17 16:24:37;;;;;;;23.15;17.00;;;19.10;99.90;;;;;;5072647;28;20267;-77
2022/10/17 16:27:26;;;;;;;25.52;17.55;;;19.00;99.90;;;;;;5080274;28;20494;-77
2022/10/17 16:30:17;;;;;;;31.65;18.15;;;19.00;99.90;;;;;;5077158;28;20230;-77
2022/10/17 16:33:06;;;;;;;22.95;17.48;;;19.00;99.90;;;;;;5060493;28;20710;-76
2022/10/17 16:35:54;;;;;;;26.60;18.33;;;18.90;99.90;;;;;;5041899;28;20238;-76
2022/10/17 16:38:43;;;;;;;23.88;17.45;;;18.90;99.90;;;;;;5056938;28;20282;-73
2022/10/17 16:41:34;;;;;;;24.67;18.52;;;18.90;99.90;;;;;;5067270;28;20227;-77
2022/10/17 16:44:22;;;;;;;24.65;18.02;;;18.80;99.90;;;;;;5071571;28;20231;-78
2022/10/17 16:47:12;;;;;;;29.58;19.48;;;18.80;99.90;;;;;;5048147;28;20719;-77
2022/10/17 16:50:01;;;;;;;25.63;18.17;;;18.80;99.90;;;;;;5060905;28;20227;-77
2022/10/17 16:52:50;;;;;;;21.77;18.08;;;18.80;99.90;;;;;;5063678;28;20695;-77
2022/10/17 16:55:38;;;;;;;24.50;17.77;;;18.80;99.90;;;;;;5072900;28;20220;-77
2022/10/17 16:58:30;;;;;;;24.80;17.98;;;18.80;99.90;;;;;;5069141;28;20314;-76
2022/10/17 17:01:21;;;;;;;25.38;18.65;;;18.80;99.90;;;;;;5069911;28;20216;-77
2022/10/17 17:04:12;;;;;;;22.75;17.77;;;18.80;99.90;;;;;;5070910;28;20219;-77
2022/10/17 17:07:00;;;;;;;24.40;18.50;;;18.70;99.90;;;;;;5067342;28;20587;-77
2022/10/17 17:27:08;;;;;;;23.60;18.05;;;18.70;99.90;;;;;;5077105;27;21323;-76
2022/10/17 17:30:01;;;;;;;22.73;18.40;;;18.60;99.90;;;;;;5034929;28;20225;-76
2022/10/17 17:32:49;;;;;;;23.10;18.02;;;18.60;99.90;;;;;;5062014;28;20233;-78
2022/10/17 17:35:39;;;;;;;24.10;18.42;;;18.60;99.90;;;;;;5048247;28;20227;-77
2022/10/17 17:38:29;;;;;;;26.42;18.05;;;18.60;99.90;;;;;;5045632;28;20323;-78
2022/10/17 17:41:23;;;;;;;22.77;16.90;;;18.60;99.90;;;;;;5045307;28;20217;-78
2022/10/17 17:44:14;;;;;;;24.45;18.00;;;18.60;99.90;;;;;;5044143;28;20835;-76
2022/10/17 17:47:05;;;;;;;23.02;18.38;;;18.60;99.90;;;;;;5040144;28;20362;-78
2022/10/17 17:49:53;;;;;;;27.17;18.35;;;18.60;99.90;;;;;;5045498;28;21851;-76
2022/10/17 17:52:44;;;;;;;23.55;18.33;;;18.60;99.90;;;;;;5055170;28;20225;-78
2022/10/17 17:55:33;;;;;;;23.17;18.67;;;18.60;99.90;;;;;;5043568;28;20227;-77
2022/10/17 17:58:22;;;;;;;23.98;18.55;;;18.50;99.90;;;;;;5047314;28;20231;-76
2022/10/17 18:01:17;;;;;;;21.92;18.55;;;18.50;99.90;;;;;;5042104;28;20219;-77
2022/10/17 18:04:07;;;;;;;24.88;19.27;;;18.50;99.90;;;;;;5052553;28;20248;-76
2022/10/17 18:06:56;;;;;;;26.83;19.00;;;18.50;99.90;;;;;;5039436;28;20241;-77
2022/10/17 18:09:45;;;;;;;30.25;19.63;;;18.50;99.90;;;;;;5052441;28;20216;-76
2022/10/17 18:12:34;;;;;;;27.13;19.58;;;18.50;99.90;;;;;;5064406;28;20218;-77
2022/10/17 18:15:23;;;;;;;30.75;20.58;;;18.50;99.90;;;;;;5045833;28;20220;-77
2022/10/17 18:18:13;;;;;;;27.90;19.90;;;18.40;99.90;;;;;;5047136;28;20236;-78
2022/10/17 18:21:02;;;;;;;27.35;20.42;;;18.40;99.90;;;;;;5057890;28;20239;-78
2022/10/17 18:23:51;;;;;;;32.65;20.08;;;18.40;99.90;;;;;;5058975;28;20223;-77
2022/10/17 18:26:40;;;;;;;29.30;20.17;;;18.30;99.90;;;;;;5052336;28;20232;-77
2022/10/17 18:29:30;;;;;;;29.17;20.30;;;18.40;99.90;;;;;;5051916;28;20228;-76